sensor_id;sensor_type;location;lat;lon;timestamp;P1;durP1;ratioP1;P2;durP2;ratioP2
23594;SDS011;11975;47.674;9.472;2023-04-01T03:04:33;27.70;;;26.15;;
23594;SDS011;11975;47.674;9.472;2023-04-01T03:06:59;30.27;;;28.58;;
23594;SDS011;11975;47.674;9.472;2023-04-01T03:09:25;31.30;;;29.50;;
23594;SDS011;11975;47.674;9.472;2023-04-01T03:11:51;30.40;;;28.70;;
23594;SDS011;11975;47.674;9.472;2023-04-01T03:14:17;30.38;;;28.67;;
23594;SDS011;11975;47.674;9.472;2023-04-01T03:16:43;29.50;;;27.83;;
23594;SDS011;11975;47.674;9.472;2023-04-01T03:19:09;27.98;;;26.38;;
23594;SDS011;11975;47.674;9.472;2023-04-01T03:21:34;27.02;;;25.52;;
23594;SDS011;11975;47.674;9.472;2023-04-01T03:24:00;26.63;;;25.13;;
23594;SDS011;11975;47.674;9.472;2023-04-01T03:26:26;26.10;;;24.60;;
23594;SDS011;11975;47.674;9.472;2023-04-01T03:28:52;25.50;;;24.10;;
23594;SDS011;11975;47.674;9.472;2023-04-01T03:31:18;24.58;;;23.17;;
23594;SDS011;11975;47.674;9.472;2023-04-01T03:33:44;25.80;;;24.13;;
23594;SDS011;11975;47.674;9.472;2023-04-01T03:36:10;24.48;;;23.08;;
23594;SDS011;11975;47.674;9.472;2023-04-01T03:38:38;23.30;;;22.00;;
23594;SDS011;11975;47.674;9.472;2023-04-01T03:41:05;24.35;;;22.95;;
23594;SDS011;11975;47.674;9.472;2023-04-01T03:43:32;23.33;;;22.02;;
23594;SDS011;11975;47.674;9.472;2023-04-01T03:45:58;23.98;;;22.67;;
23594;SDS011;11975;47.674;9.472;2023-04-01T03:48:24;24.05;;;22.70;;
23594;SDS011;11975;47.674;9.472;2023-04-01T03:50:51;24.55;;;23.05;;
23594;SDS011;11975;47.674;9.472;2023-04-01T03:53:17;24.20;;;22.80;;
23594;SDS011;11975;47.674;9.472;2023-04-01T03:55:43;24.30;;;22.70;;
23594;SDS011;11975;47.674;9.472;2023-04-01T03:58:09;23.63;;;22.33;;
23594;SDS011;11975;47.674;9.472;2023-04-01T04:00:35;23.33;;;22.02;;
23594;SDS011;11975;47.674;9.472;2023-04-01T04:03:01;24.33;;;22.92;;
23594;SDS011;11975;47.674;9.472;2023-04-01T04:05:27;23.20;;;21.90;;
23594;SDS011;11975;47.674;9.472;2023-04-01T04:07:53;23.73;;;22.42;;
23594;SDS011;11975;47.674;9.472;2023-04-01T04:10:20;23.25;;;21.95;;
23594;SDS011;11975;47.674;9.472;2023-04-01T04:12:46;23.70;;;22.40;;
23594;SDS011;11975;47.674;9.472;2023-04-01T04:15:12;23.70;;;22.40;;
23594;SDS011;11975;47.674;9.472;2023-04-01T04:17:38;23.70;;;22.30;;
23594;SDS011;11975;47.674;9.472;2023-04-01T04:20:04;24.10;;;22.70;;
23594;SDS011;11975;47.674;9.472;2023-04-01T04:22:30;23.50;;;22.17;;
23594;SDS011;11975;47.674;9.472;2023-04-01T04:24:56;23.17;;;21.88;;
23594;SDS011;11975;47.674;9.472;2023-04-01T04:27:22;23.13;;;21.83;;
23594;SDS011;11975;47.674;9.472;2023-04-01T04:29:48;23.05;;;21.75;;
23594;SDS011;11975;47.674;9.472;2023-04-01T04:32:14;23.05;;;21.65;;
23594;SDS011;11975;47.674;9.472;2023-04-01T04:34:40;23.02;;;21.63;;
23594;SDS011;11975;47.674;9.472;2023-04-01T04:37:06;23.77;;;22.38;;
23594;SDS011;11975;47.674;9.472;2023-04-01T04:39:32;22.50;;;21.27;;
23594;SDS011;11975;47.674;9.472;2023-04-01T04:41:57;22.30;;;21.10;;
23594;SDS011;11975;47.674;9.472;2023-04-01T04:44:23;23.33;;;22.02;;
23594;SDS011;11975;47.674;9.472;2023-04-01T04:46:49;22.70;;;21.40;;
23594;SDS011;11975;47.674;9.472;2023-04-01T04:49:15;23.35;;;22.05;;
23594;SDS011;11975;47.674;9.472;2023-04-01T04:51:41;22.75;;;21.45;;
23594;SDS011;11975;47.674;9.472;2023-04-01T04:54:07;23.33;;;22.00;;
23594;SDS011;11975;47.674;9.472;2023-04-01T04:56:33;22.50;;;21.27;;
23594;SDS011;11975;47.674;9.472;2023-04-01T04:58:59;22.23;;;21.02;;
23594;SDS011;11975;47.674;9.472;2023-04-01T05:01:26;22.23;;;21.02;;
23594;SDS011;11975;47.674;9.472;2023-04-01T17:52:37;25.00;;;23.60;;
23594;SDS011;11975;47.674;9.472;2023-04-01T17:58:17;24.77;;;23.38;;
23594;SDS011;11975;47.674;9.472;2023-04-01T18:00:50;24.77;;;23.38;;
23594;SDS011;11975;47.674;9.472;2023-04-01T18:06:42;24.23;;;22.83;;
23594;SDS011;11975;47.674;9.472;2023-04-01T18:11:54;23.95;;;22.63;;
23594;SDS011;11975;47.674;9.472;2023-04-01T18:22:25;25.10;;;23.38;;
23594;SDS011;11975;47.674;9.472;2023-04-01T18:25:04;25.35;;;23.95;;
23594;SDS011;11975;47.674;9.472;2023-04-01T18:27:46;25.08;;;23.67;;
23594;SDS011;11975;47.674;9.472;2023-04-01T18:30:20;24.13;;;22.73;;
23594;SDS011;11975;47.674;9.472;2023-04-01T18:32:54;23.70;;;22.40;;
23594;SDS011;11975;47.674;9.472;2023-04-01T18:40:41;23.60;;;22.30;;
23594;SDS011;11975;47.674;9.472;2023-04-01T18:43:14;23.90;;;22.60;;
23594;SDS011;11975;47.674;9.472;2023-04-01T18:45:59;23.98;;;22.58;;
23594;SDS011;11975;47.674;9.472;2023-04-01T18:53:53;24.08;;;22.77;;
23594;SDS011;11975;47.674;9.472;2023-04-01T18:59:09;23.90;;;22.60;;
23594;SDS011;11975;47.674;9.472;2023-04-01T19:01:39;24.52;;;23.10;;
23594;SDS011;11975;47.674;9.472;2023-04-01T19:04:14;25.25;;;23.48;;
23594;SDS011;11975;47.674;9.472;2023-04-01T19:06:58;25.20;;;23.70;;
23594;SDS011;11975;47.674;9.472;2023-04-01T19:09:30;25.67;;;24.17;;
23594;SDS011;11975;47.674;9.472;2023-04-01T19:20:26;24.88;;;23.48;;
23594;SDS011;11975;47.674;9.472;2023-04-01T19:25:43;24.75;;;23.35;;
23594;SDS011;11975;47.674;9.472;2023-04-01T19:28:26;25.02;;;23.63;;
23594;SDS011;11975;47.674;9.472;2023-04-01T19:30:57;25.13;;;23.73;;
23594;SDS011;11975;47.674;9.472;2023-04-01T19:36:19;25.02;;;23.63;;
23594;SDS011;11975;47.674;9.472;2023-04-01T19:38:52;25.13;;;23.73;;
23594;SDS011;11975;47.674;9.472;2023-04-01T19:41:31;25.15;;;23.75;;
23594;SDS011;11975;47.674;9.472;2023-04-01T19:47:21;28.65;;;26.85;;
23594;SDS011;11975;47.674;9.472;2023-04-01T19:49:58;25.63;;;24.13;;
23594;SDS011;11975;47.674;9.472;2023-04-01T19:52:32;25.63;;;24.17;;
23594;SDS011;11975;47.674;9.472;2023-04-01T20:00:41;23.40;;;22.10;;
23594;SDS011;11975;47.674;9.472;2023-04-01T20:08:45;23.05;;;21.75;;
23594;SDS011;11975;47.674;9.472;2023-04-01T20:11:20;23.10;;;21.80;;
23594;SDS011;11975;47.674;9.472;2023-04-01T20:19:11;23.23;;;21.92;;
23594;SDS011;11975;47.674;9.472;2023-04-01T20:21:42;22.77;;;21.50;;
23594;SDS011;11975;47.674;9.472;2023-04-01T20:26:50;22.75;;;21.45;;
23594;SDS011;11975;47.674;9.472;2023-04-01T20:32:16;23.33;;;22.02;;
23594;SDS011;11975;47.674;9.472;2023-04-01T20:37:35;22.83;;;21.52;;
23594;SDS011;11975;47.674;9.472;2023-04-01T20:43:46;23.05;;;21.75;;
23594;SDS011;11975;47.674;9.472;2023-04-01T20:46:01;22.77;;;21.48;;
23594;SDS011;11975;47.674;9.472;2023-04-01T20:48:54;24.15;;;22.05;;
23594;SDS011;11975;47.674;9.472;2023-04-01T20:57:05;23.27;;;21.95;;
23594;SDS011;11975;47.674;9.472;2023-04-01T21:07:16;23.33;;;22.02;;
23594;SDS011;11975;47.674;9.472;2023-04-01T21:15:21;23.40;;;22.10;;
23594;SDS011;11975;47.674;9.472;2023-04-01T21:18:01;23.30;;;22.00;;
23594;SDS011;11975;47.674;9.472;2023-04-01T21:23:20;23.10;;;21.80;;
23594;SDS011;11975;47.674;9.472;2023-04-01T21:25:54;22.20;;;21.00;;
23594;SDS011;11975;47.674;9.472;2023-04-01T21:28:28;23.20;;;21.90;;
23594;SDS011;11975;47.674;9.472;2023-04-01T21:31:18;23.35;;;22.05;;
23594;SDS011;11975;47.674;9.472;2023-04-01T21:33:52;23.58;;;22.27;;
23594;SDS011;11975;47.674;9.472;2023-04-01T21:45:20;23.25;;;21.95;;
23594;SDS011;11975;47.674;9.472;2023-04-01T21:50:55;22.80;;;21.50;;
23594;SDS011;11975;47.674;9.472;2023-04-01T21:53:56;23.08;;;21.77;;
23594;SDS011;11975;47.674;9.472;2023-04-01T21:56:42;22.67;;;21.42;;
23594;SDS011;11975;47.674;9.472;2023-04-01T21:59:39;22.90;;;21.60;;
23594;SDS011;11975;47.674;9.472;2023-04-01T22:08:20;23.05;;;21.75;;
23594;SDS011;11975;47.674;9.472;2023-04-01T22:10:54;23.43;;;22.13;;
23594;SDS011;11975;47.674;9.472;2023-04-01T22:21:41;22.33;;;21.13;;
23594;SDS011;11975;47.674;9.472;2023-04-01T22:27:03;22.80;;;21.50;;
23594;SDS011;11975;47.674;9.472;2023-04-01T22:32:16;22.95;;;21.65;;
23594;SDS011;11975;47.674;9.472;2023-04-01T22:37:40;23.05;;;21.70;;
23594;SDS011;11975;47.674;9.472;2023-04-01T22:40:39;22.80;;;21.50;;
23594;SDS011;11975;47.674;9.472;2023-04-01T22:43:12;22.92;;;21.63;;
23594;SDS011;11975;47.674;9.472;2023-04-01T22:46:25;22.75;;;21.45;;
23594;SDS011;11975;47.674;9.472;2023-04-01T22:51:52;22.60;;;21.30;;
23594;SDS011;11975;47.674;9.472;2023-04-01T22:54:36;22.77;;;21.48;;
23594;SDS011;11975;47.674;9.472;2023-04-01T22:59:38;23.38;;;22.08;;
23594;SDS011;11975;47.674;9.472;2023-04-01T23:02:20;23.58;;;22.27;;
23594;SDS011;11975;47.674;9.472;2023-04-01T23:04:52;23.77;;;22.48;;
23594;SDS011;11975;47.674;9.472;2023-04-01T23:10:03;23.75;;;22.45;;
23594;SDS011;11975;47.674;9.472;2023-04-01T23:12:31;24.58;;;23.08;;
23594;SDS011;11975;47.674;9.472;2023-04-01T23:15:01;23.90;;;22.60;;
23594;SDS011;11975;47.674;9.472;2023-04-01T23:17:42;23.45;;;22.15;;
23594;SDS011;11975;47.674;9.472;2023-04-01T23:20:20;23.45;;;22.15;;
23594;SDS011;11975;47.674;9.472;2023-04-01T23:26:05;24.48;;;23.08;;
23594;SDS011;11975;47.674;9.472;2023-04-01T23:28:40;24.38;;;23.02;;
23594;SDS011;11975;47.674;9.472;2023-04-01T23:33:58;24.17;;;22.88;;
23594;SDS011;11975;47.674;9.472;2023-04-01T23:36:46;24.20;;;22.90;;
23594;SDS011;11975;47.674;9.472;2023-04-01T23:39:20;24.15;;;22.83;;
23594;SDS011;11975;47.674;9.472;2023-04-01T23:41:51;24.17;;;22.83;;
23594;SDS011;11975;47.674;9.472;2023-04-01T23:44:18;24.27;;;22.92;;
23594;SDS011;11975;47.674;9.472;2023-04-01T23:46:45;23.80;;;22.50;;
23594;SDS011;11975;47.674;9.472;2023-04-01T23:49:13;23.63;;;22.33;;
